Melbourne, FL (32940)

1:52 AM EST on February 28, 2015 (GMT -0500)
APRSWXNET Melbourne FL US | Change Station
CLOSE
Current Station
Personal Weather Station
Location: Melbourne, FL
Elevation: 9 ft
Nearby Weather Stations

Elev 9 ft 28.22 °N, 80.67 °W | Updated 34 minutes ago

Overcast
Overcast
64 °F
Feels Like 64 °F
N
8
Wind Variable Wind from NE
Gusts 10.0 mph

Today
High -- | Low -- °F
--% Chance of Precip.
Yesterday
High -- | Low -- °F
Precip. -- in
6:48 AM 6:22 PM
Waxing Gibbous, 75% visible
Pressure 30.25 in
Visibility 10.0 miles
Clouds Mostly Cloudy 2300 ft
Overcast 2800 ft
Dew Point 63 °F
Humidity 98%
Rainfall 0.20 in
Snow Depth Not available.
UV 0 out of 12
Pollen 10.40 out of 12
Air Quality Not available.
Flu Activity Not available.
METAR KCOF 280558Z AUTO 05010KT 10SM BKN023 OVC028 18/18 A3023 RMK AO2 DZB15E25 CIG 023V028 CIG 014 RWY20 SLP241 P0000 60009 T01780176 10179 20143 58004 $

More Conditions Fewer Conditions

Pressure 30.25 in
Visibility 10.0 miles
Clouds Mostly Cloudy 2300 ft
Overcast 2800 ft
Dew Point 63 °F
Humidity 98%
Rainfall 0.20 in
Snow Depth Not available.
UV 0 out of 12
Pollen 10.40 out of 12
Air Quality Not available.
Flu Activity Not available.
METAR KCOF 280558Z AUTO 05010KT 10SM BKN023 OVC028 18/18 A3023 RMK AO2 DZB15E25 CIG 023V028 CIG 014 RWY20 SLP241 P0000 60009 T01780176 10179 20143 58004 $

More Conditions Fewer Conditions

Nowcast | as of 10:48 PM EST on February 27, 2015

Temperatures are expected to remain steady or slowly rise into the upper 50s over the interior and northern sections...including the I 4 corridor. But temperatures will rise into the 60s along the Brevard coast as an onshore northeast flow develops. This has already occurred along the Treasure Coast where temperatures have jumped into the mid 60s. Areas of light rain and sprinkles will occur overnight. Areas most preferred will be across North Lake and Volusia counties as well as along the coast from Brevard...Indian River...Saint Lucie to Martin counties. Additional details...including graphics are available online at: http://www.Srh.NOAA.Gov/mlb/blog.Php

×

10-Day Weather Forecast

Almanac

Astronomy

Feb. 28, 2015 Rise Set
Actual Time
Civil Twilight
Nautical Twilight
Astronomical Twilight
Moon
Length of Visible Light
Length of Day
Tomorrow will be .
, % of the Moon is Illuminated

Today's Extremes

State Highs State Lows

Community

WunderPhotos

Upload Photos

1,800,978 photos uploaded!

WunderBlogs® & News

Nearby

Air Quality

  Air Quality AQ Index Pollutant
Not available.

Snow Depth

Station Depth Elevation

Earthquake Activity

City Distance Mag. Time & Date
Minimum magnitude displayed is 2.5.

Coastal Water Temperatures

Place Temperature

Nearby Weather Stations